sensor_id;sensor_type;location;lat;lon;timestamp;pressure;altitude;pressure_sealevel;temperature;humidity
70982;BME280;58640;51.320;9.456;2022-08-25T00:02:19;99714.94;;;21.41;53.87
70982;BME280;58640;51.320;9.456;2022-08-25T00:04:44;99718.03;;;21.33;54.21
70982;BME280;58640;51.320;9.456;2022-08-25T00:07:10;99708.53;;;21.24;54.56
70982;BME280;58640;51.320;9.456;2022-08-25T00:09:36;99709.13;;;21.15;54.77
70982;BME280;58640;51.320;9.456;2022-08-25T00:12:03;99708.88;;;21.16;54.83
70982;BME280;58640;51.320;9.456;2022-08-25T00:14:33;99706.03;;;21.23;54.62
70982;BME280;58640;51.320;9.456;2022-08-25T00:16:59;99706.88;;;21.23;54.79
70982;BME280;58640;51.320;9.456;2022-08-25T00:19:28;99701.16;;;21.13;55.19
70982;BME280;58640;51.320;9.456;2022-08-25T00:21:54;99702.34;;;21.06;55.38
70982;BME280;58640;51.320;9.456;2022-08-25T00:24:21;99704.94;;;21.01;55.57
70982;BME280;58640;51.320;9.456;2022-08-25T00:26:49;99706.03;;;21.00;55.54
70982;BME280;58640;51.320;9.456;2022-08-25T00:29:15;99708.59;;;20.95;55.57
70982;BME280;58640;51.320;9.456;2022-08-25T00:31:41;99704.28;;;20.87;55.97
70982;BME280;58640;51.320;9.456;2022-08-25T00:34:09;99703.59;;;20.92;55.83
70982;BME280;58640;51.320;9.456;2022-08-25T00:36:35;99701.56;;;20.87;56.09
70982;BME280;58640;51.320;9.456;2022-08-25T00:39:01;99699.53;;;20.83;56.15
70982;BME280;58640;51.320;9.456;2022-08-25T00:41:26;99703.72;;;20.85;55.92
70982;BME280;58640;51.320;9.456;2022-08-25T00:43:57;99695.84;;;20.77;56.26
70982;BME280;58640;51.320;9.456;2022-08-25T00:46:34;99694.91;;;20.83;56.15
70982;BME280;58640;51.320;9.456;2022-08-25T00:49:06;99699.75;;;20.70;56.55
70982;BME280;58640;51.320;9.456;2022-08-25T00:51:36;99700.22;;;20.67;56.73
70982;BME280;58640;51.320;9.456;2022-08-25T00:54:04;99697.09;;;20.63;56.78
70982;BME280;58640;51.320;9.456;2022-08-25T00:56:31;99696.75;;;20.60;56.98
70982;BME280;58640;51.320;9.456;2022-08-25T00:58:57;99698.03;;;20.57;56.83
70982;BME280;58640;51.320;9.456;2022-08-25T01:01:24;99696.75;;;20.60;56.98
70982;BME280;58640;51.320;9.456;2022-08-25T01:03:50;99693.09;;;20.66;56.67
70982;BME280;58640;51.320;9.456;2022-08-25T01:06:15;99696.88;;;20.53;57.11
70982;BME280;58640;51.320;9.456;2022-08-25T01:08:40;99697.19;;;20.45;57.35
70982;BME280;58640;51.320;9.456;2022-08-25T01:11:07;99699.59;;;20.53;57.25
70982;BME280;58640;51.320;9.456;2022-08-25T01:13:41;99707.38;;;20.38;57.76
70982;BME280;58640;51.320;9.456;2022-08-25T01:16:09;99701.22;;;20.43;57.69
70982;BME280;58640;51.320;9.456;2022-08-25T01:18:45;99701.09;;;20.38;57.80
70982;BME280;58640;51.320;9.456;2022-08-25T01:21:11;99696.91;;;20.35;57.83
70982;BME280;58640;51.320;9.456;2022-08-25T01:23:37;99697.91;;;20.41;57.61
70982;BME280;58640;51.320;9.456;2022-08-25T01:26:07;99689.69;;;20.41;57.64
70982;BME280;58640;51.320;9.456;2022-08-25T01:28:34;99692.06;;;20.37;57.92
70982;BME280;58640;51.320;9.456;2022-08-25T01:31:00;99689.88;;;20.27;58.32
70982;BME280;58640;51.320;9.456;2022-08-25T01:33:25;99686.81;;;20.36;57.91
70982;BME280;58640;51.320;9.456;2022-08-25T01:35:51;99685.03;;;20.41;57.80
70982;BME280;58640;51.320;9.456;2022-08-25T01:38:16;99685.38;;;20.33;58.07
70982;BME280;58640;51.320;9.456;2022-08-25T01:40:42;99688.91;;;20.22;58.49
70982;BME280;58640;51.320;9.456;2022-08-25T01:45:44;99690.22;;;20.01;59.31
70982;BME280;58640;51.320;9.456;2022-08-25T01:48:11;99683.09;;;20.00;59.21
70982;BME280;58640;51.320;9.456;2022-08-25T01:50:37;99685.66;;;19.95;59.49
70982;BME280;58640;51.320;9.456;2022-08-25T01:53:26;99685.66;;;19.95;59.23
70982;BME280;58640;51.320;9.456;2022-08-25T01:55:52;99687.84;;;20.05;58.86
70982;BME280;58640;51.320;9.456;2022-08-25T01:58:30;99685.22;;;19.98;59.30
70982;BME280;58640;51.320;9.456;2022-08-25T02:00:59;99686.53;;;19.96;59.42
70982;BME280;58640;51.320;9.456;2022-08-25T02:03:26;99676.78;;;20.00;59.63
70982;BME280;58640;51.320;9.456;2022-08-25T02:05:52;99681.94;;;20.08;59.23
70982;BME280;58640;51.320;9.456;2022-08-25T02:08:19;99677.63;;;20.00;59.59
70982;BME280;58640;51.320;9.456;2022-08-25T02:10:44;99681.16;;;20.01;59.89
70982;BME280;58640;51.320;9.456;2022-08-25T02:13:11;99680.69;;;19.92;60.05
70982;BME280;58640;51.320;9.456;2022-08-25T02:15:44;99680.28;;;19.89;60.14
70982;BME280;58640;51.320;9.456;2022-08-25T02:18:11;99679.75;;;19.98;60.00
70982;BME280;58640;51.320;9.456;2022-08-25T02:20:36;99681.63;;;19.98;59.77
70982;BME280;58640;51.320;9.456;2022-08-25T02:23:02;99682.25;;;20.00;59.66
70982;BME280;58640;51.320;9.456;2022-08-25T02:25:29;99682.94;;;19.95;59.93
70982;BME280;58640;51.320;9.456;2022-08-25T02:27:54;99681.13;;;19.89;60.14
70982;BME280;58640;51.320;9.456;2022-08-25T02:30:20;99688.72;;;19.87;60.42
70982;BME280;58640;51.320;9.456;2022-08-25T02:32:45;99684.09;;;19.88;60.49
70982;BME280;58640;51.320;9.456;2022-08-25T02:35:11;99676.00;;;19.81;60.60
70982;BME280;58640;51.320;9.456;2022-08-25T02:37:36;99682.72;;;19.79;60.73
70982;BME280;58640;51.320;9.456;2022-08-25T02:40:03;99685.22;;;19.80;60.50
70982;BME280;58640;51.320;9.456;2022-08-25T02:42:29;99683.88;;;19.71;60.79
70982;BME280;58640;51.320;9.456;2022-08-25T02:44:55;99672.19;;;19.64;61.21
70982;BME280;58640;51.320;9.456;2022-08-25T02:47:20;99668.66;;;19.64;61.09
70982;BME280;58640;51.320;9.456;2022-08-25T02:49:46;99671.16;;;19.65;61.35
70982;BME280;58640;51.320;9.456;2022-08-25T02:52:13;99671.22;;;19.77;60.89
70982;BME280;58640;51.320;9.456;2022-08-25T02:54:39;99672.72;;;19.73;61.13
70982;BME280;58640;51.320;9.456;2022-08-25T02:57:04;99665.91;;;19.64;61.41
70982;BME280;58640;51.320;9.456;2022-08-25T02:59:30;99667.56;;;19.65;61.47
70982;BME280;58640;51.320;9.456;2022-08-25T03:01:55;99668.41;;;19.65;61.65
70982;BME280;58640;51.320;9.456;2022-08-25T03:04:21;99673.03;;;19.65;61.81
70982;BME280;58640;51.320;9.456;2022-08-25T03:06:46;99666.13;;;19.44;62.31
70982;BME280;58640;51.320;9.456;2022-08-25T03:09:12;99669.31;;;19.41;62.33
70982;BME280;58640;51.320;9.456;2022-08-25T03:11:38;99667.16;;;19.50;62.00
70982;BME280;58640;51.320;9.456;2022-08-25T03:14:05;99662.22;;;19.40;62.32
70982;BME280;58640;51.320;9.456;2022-08-25T03:16:30;99672.44;;;19.45;62.35
70982;BME280;58640;51.320;9.456;2022-08-25T03:18:56;99667.28;;;19.37;62.68
70982;BME280;58640;51.320;9.456;2022-08-25T03:21:22;99665.97;;;19.39;62.46
70982;BME280;58640;51.320;9.456;2022-08-25T03:23:48;99661.31;;;19.46;62.79
70982;BME280;58640;51.320;9.456;2022-08-25T03:26:13;99665.75;;;19.41;62.93
70982;BME280;58640;51.320;9.456;2022-08-25T03:28:57;99667.78;;;19.27;63.62
70982;BME280;58640;51.320;9.456;2022-08-25T03:31:24;99664.03;;;19.22;63.93
70982;BME280;58640;51.320;9.456;2022-08-25T03:33:51;99669.47;;;19.28;63.47
70982;BME280;58640;51.320;9.456;2022-08-25T03:36:17;99665.88;;;19.28;63.66
70982;BME280;58640;51.320;9.456;2022-08-25T03:38:43;99664.00;;;19.28;63.45
70982;BME280;58640;51.320;9.456;2022-08-25T03:41:22;99673.47;;;19.26;63.67
70982;BME280;58640;51.320;9.456;2022-08-25T03:43:48;99668.66;;;19.21;63.84
70982;BME280;58640;51.320;9.456;2022-08-25T03:46:34;99666.78;;;19.22;63.74
70982;BME280;58640;51.320;9.456;2022-08-25T03:49:02;99666.78;;;19.22;63.68
70982;BME280;58640;51.320;9.456;2022-08-25T03:51:30;99664.22;;;19.27;63.31
70982;BME280;58640;51.320;9.456;2022-08-25T03:53:57;99661.16;;;19.41;62.61
70982;BME280;58640;51.320;9.456;2022-08-25T03:56:23;99656.84;;;19.34;62.65
70982;BME280;58640;51.320;9.456;2022-08-25T03:58:49;99651.38;;;19.34;62.52
70982;BME280;58640;51.320;9.456;2022-08-25T04:01:15;99661.66;;;19.32;62.68
70982;BME280;58640;51.320;9.456;2022-08-25T04:03:40;99662.88;;;19.36;62.60
70982;BME280;58640;51.320;9.456;2022-08-25T04:06:06;99658.47;;;19.35;62.68
70982;BME280;58640;51.320;9.456;2022-08-25T04:08:33;99646.19;;;19.26;62.92
70982;BME280;58640;51.320;9.456;2022-08-25T04:10:58;99656.31;;;19.19;63.21
70982;BME280;58640;51.320;9.456;2022-08-25T04:13:24;99648.19;;;19.12;63.63
70982;BME280;58640;51.320;9.456;2022-08-25T04:15:49;99655.63;;;19.05;64.01
70982;BME280;58640;51.320;9.456;2022-08-25T04:18:15;99648.03;;;19.07;64.30
70982;BME280;58640;51.320;9.456;2022-08-25T04:20:41;99657.56;;;18.98;64.84
70982;BME280;58640;51.320;9.456;2022-08-25T04:23:07;99666.72;;;18.85;65.49
70982;BME280;58640;51.320;9.456;2022-08-25T04:25:33;99656.72;;;18.98;65.11
70982;BME280;58640;51.320;9.456;2022-08-25T04:27:59;99656.91;;;19.03;65.00
70982;BME280;58640;51.320;9.456;2022-08-25T04:30:24;99656.34;;;18.94;65.56
70982;BME280;58640;51.320;9.456;2022-08-25T04:32:50;99663.31;;;18.90;65.68
70982;BME280;58640;51.320;9.456;2022-08-25T04:35:15;99660.53;;;18.97;65.70
70982;BME280;58640;51.320;9.456;2022-08-25T04:37:41;99653.38;;;18.95;65.61
70982;BME280;58640;51.320;9.456;2022-08-25T04:40:07;99651.72;;;18.94;65.53
70982;BME280;58640;51.320;9.456;2022-08-25T04:42:33;99654.00;;;18.98;65.79
70982;BME280;58640;51.320;9.456;2022-08-25T04:44:59;99652.75;;;19.00;65.64
70982;BME280;58640;51.320;9.456;2022-08-25T04:47:26;99647.50;;;18.99;66.03
70982;BME280;58640;51.320;9.456;2022-08-25T04:49:52;99651.63;;;19.08;65.45
70982;BME280;58640;51.320;9.456;2022-08-25T04:52:17;99649.56;;;19.03;65.79
70982;BME280;58640;51.320;9.456;2022-08-25T04:54:42;99649.41;;;18.98;65.89
70982;BME280;58640;51.320;9.456;2022-08-25T04:57:08;99648.56;;;18.98;65.97
70982;BME280;58640;51.320;9.456;2022-08-25T04:59:34;99648.94;;;19.01;65.95
70982;BME280;58640;51.320;9.456;2022-08-25T05:02:00;99652.50;;;19.02;65.64
70982;BME280;58640;51.320;9.456;2022-08-25T05:04:30;99650.47;;;18.97;65.84
70982;BME280;58640;51.320;9.456;2022-08-25T05:06:57;99655.75;;;18.92;66.02
70982;BME280;58640;51.320;9.456;2022-08-25T05:09:23;99642.72;;;18.94;66.03
70982;BME280;58640;51.320;9.456;2022-08-25T05:11:48;99646.91;;;18.97;65.82
70982;BME280;58640;51.320;9.456;2022-08-25T05:14:14;99645.31;;;19.07;65.30
70982;BME280;58640;51.320;9.456;2022-08-25T05:16:42;99648.81;;;19.14;65.36
70982;BME280;58640;51.320;9.456;2022-08-25T05:19:08;99640.41;;;19.16;65.24
70982;BME280;58640;51.320;9.456;2022-08-25T05:21:33;99641.84;;;19.18;65.18
70982;BME280;58640;51.320;9.456;2022-08-25T05:24:00;99632.38;;;19.21;65.38
70982;BME280;58640;51.320;9.456;2022-08-25T05:26:26;99641.69;;;19.13;65.60
70982;BME280;58640;51.320;9.456;2022-08-25T05:28:54;99645.47;;;19.12;65.98
70982;BME280;58640;51.320;9.456;2022-08-25T05:31:21;99648.03;;;19.07;65.90
70982;BME280;58640;51.320;9.456;2022-08-25T05:33:47;99657.16;;;19.19;65.72
70982;BME280;58640;51.320;9.456;2022-08-25T05:36:13;99653.59;;;19.19;66.04
70982;BME280;58640;51.320;9.456;2022-08-25T05:38:40;99649.44;;;19.16;66.18
70982;BME280;58640;51.320;9.456;2022-08-25T05:41:08;99647.06;;;19.20;66.25
70982;BME280;58640;51.320;9.456;2022-08-25T05:43:36;99650.19;;;19.23;66.19
70982;BME280;58640;51.320;9.456;2022-08-25T05:46:02;99639.22;;;19.30;65.80
70982;BME280;58640;51.320;9.456;2022-08-25T05:48:28;99643.69;;;19.24;66.68
70982;BME280;58640;51.320;9.456;2022-08-25T05:50:58;99645.53;;;19.30;66.16
70982;BME280;58640;51.320;9.456;2022-08-25T05:53:26;99647.03;;;19.44;65.55
70982;BME280;58640;51.320;9.456;2022-08-25T05:55:52;99649.94;;;19.49;65.63
70982;BME280;58640;51.320;9.456;2022-08-25T05:58:19;99636.59;;;19.59;65.75
70982;BME280;58640;51.320;9.456;2022-08-25T06:00:45;99641.75;;;19.67;65.41
70982;BME280;58640;51.320;9.456;2022-08-25T06:03:11;99643.41;;;19.68;65.27
70982;BME280;58640;51.320;9.456;2022-08-25T06:05:36;99646.66;;;19.77;65.14
70982;BME280;58640;51.320;9.456;2022-08-25T06:08:03;99642.31;;;19.87;64.83
70982;BME280;58640;51.320;9.456;2022-08-25T06:10:29;99649.84;;;20.03;63.86
70982;BME280;58640;51.320;9.456;2022-08-25T06:12:55;99643.63;;;20.14;63.40
70982;BME280;58640;51.320;9.456;2022-08-25T06:15:23;99638.59;;;20.29;63.26
70982;BME280;58640;51.320;9.456;2022-08-25T06:17:49;99634.44;;;20.39;62.67
70982;BME280;58640;51.320;9.456;2022-08-25T06:20:26;99625.19;;;20.51;62.30
70982;BME280;58640;51.320;9.456;2022-08-25T06:22:52;99630.31;;;20.59;62.10
70982;BME280;58640;51.320;9.456;2022-08-25T06:25:20;99630.81;;;20.68;61.97
70982;BME280;58640;51.320;9.456;2022-08-25T06:27:46;99624.63;;;20.95;61.53
70982;BME280;58640;51.320;9.456;2022-08-25T06:30:15;99635.97;;;21.22;60.68
70982;BME280;58640;51.320;9.456;2022-08-25T06:32:42;99635.28;;;21.66;59.51
70982;BME280;58640;51.320;9.456;2022-08-25T06:35:11;99628.13;;;22.16;58.13
70982;BME280;58640;51.320;9.456;2022-08-25T06:37:36;99629.88;;;22.22;56.95
70982;BME280;58640;51.320;9.456;2022-08-25T06:40:04;99629.09;;;22.55;56.22
70982;BME280;58640;51.320;9.456;2022-08-25T06:42:30;99622.19;;;22.85;55.81
70982;BME280;58640;51.320;9.456;2022-08-25T06:44:55;99614.94;;;23.29;54.96
70982;BME280;58640;51.320;9.456;2022-08-25T06:47:20;99626.31;;;23.59;53.64
70982;BME280;58640;51.320;9.456;2022-08-25T06:49:46;99625.16;;;23.77;53.91
70982;BME280;58640;51.320;9.456;2022-08-25T06:52:13;99619.22;;;23.85;53.92
70982;BME280;58640;51.320;9.456;2022-08-25T06:54:39;99627.47;;;24.06;52.46
70982;BME280;58640;51.320;9.456;2022-08-25T06:57:05;99620.16;;;23.95;53.14
70982;BME280;58640;51.320;9.456;2022-08-25T06:59:32;99620.94;;;24.12;53.09
70982;BME280;58640;51.320;9.456;2022-08-25T07:01:57;99619.28;;;24.38;52.68
70982;BME280;58640;51.320;9.456;2022-08-25T07:04:23;99617.91;;;25.40;50.31
70982;BME280;58640;51.320;9.456;2022-08-25T07:06:49;99620.16;;;26.10;48.00
70982;BME280;58640;51.320;9.456;2022-08-25T07:09:14;99620.16;;;26.20;46.87
70982;BME280;58640;51.320;9.456;2022-08-25T07:11:41;99623.75;;;26.16;47.85
70982;BME280;58640;51.320;9.456;2022-08-25T07:14:09;99627.38;;;26.26;48.04
70982;BME280;58640;51.320;9.456;2022-08-25T07:16:37;99614.69;;;28.09;43.07
70982;BME280;58640;51.320;9.456;2022-08-25T07:19:03;99608.88;;;28.54;41.89
70982;BME280;58640;51.320;9.456;2022-08-25T07:21:31;99615.53;;;28.87;41.30
70982;BME280;58640;51.320;9.456;2022-08-25T07:23:57;99618.25;;;30.15;39.27
70982;BME280;58640;51.320;9.456;2022-08-25T07:26:27;99614.09;;;29.75;38.91
70982;BME280;58640;51.320;9.456;2022-08-25T07:28:54;99606.06;;;29.22;40.89
70982;BME280;58640;51.320;9.456;2022-08-25T07:31:19;99614.75;;;28.48;42.53
70982;BME280;58640;51.320;9.456;2022-08-25T07:33:44;99619.09;;;28.10;43.23
70982;BME280;58640;51.320;9.456;2022-08-25T07:36:29;99626.66;;;27.95;43.65
70982;BME280;58640;51.320;9.456;2022-08-25T07:38:57;99609.78;;;28.40;43.47
70982;BME280;58640;51.320;9.456;2022-08-25T07:41:24;99617.50;;;27.94;43.81
70982;BME280;58640;51.320;9.456;2022-08-25T07:43:49;99617.50;;;27.94;44.22
70982;BME280;58640;51.320;9.456;2022-08-25T07:46:14;99613.19;;;27.73;45.08
70982;BME280;58640;51.320;9.456;2022-08-25T07:48:40;99607.84;;;27.87;45.34
70982;BME280;58640;51.320;9.456;2022-08-25T07:51:10;99610.91;;;27.90;45.19
70982;BME280;58640;51.320;9.456;2022-08-25T07:53:36;99614.56;;;28.24;43.88
70982;BME280;58640;51.320;9.456;2022-08-25T07:56:08;99619.03;;;28.20;43.87
70982;BME280;58640;51.320;9.456;2022-08-25T07:58:34;99612.31;;;27.83;45.01
70982;BME280;58640;51.320;9.456;2022-08-25T08:01:00;99614.13;;;28.56;44.03
70982;BME280;58640;51.320;9.456;2022-08-25T08:03:25;99617.13;;;29.50;41.65
70982;BME280;58640;51.320;9.456;2022-08-25T08:05:50;99624.75;;;29.11;42.29
70982;BME280;58640;51.320;9.456;2022-08-25T08:08:16;99622.53;;;28.36;43.34
70982;BME280;58640;51.320;9.456;2022-08-25T08:10:41;99623.28;;;28.51;43.84
70982;BME280;58640;51.320;9.456;2022-08-25T08:13:07;99610.66;;;28.74;42.51
70982;BME280;58640;51.320;9.456;2022-08-25T08:15:35;99619.41;;;28.86;43.39
70982;BME280;58640;51.320;9.456;2022-08-25T08:18:01;99610.41;;;29.33;42.11
70982;BME280;58640;51.320;9.456;2022-08-25T08:20:28;99610.56;;;29.41;41.46
70982;BME280;58640;51.320;9.456;2022-08-25T08:22:55;99609.00;;;29.07;42.18
70982;BME280;58640;51.320;9.456;2022-08-25T08:25:21;99612.94;;;28.67;43.50
70982;BME280;58640;51.320;9.456;2022-08-25T08:27:46;99611.97;;;28.82;43.06
70982;BME280;58640;51.320;9.456;2022-08-25T08:30:12;99611.47;;;28.75;42.96
70982;BME280;58640;51.320;9.456;2022-08-25T08:32:38;99610.53;;;28.89;43.02
70982;BME280;58640;51.320;9.456;2022-08-25T08:35:04;99610.97;;;28.67;42.63
70982;BME280;58640;51.320;9.456;2022-08-25T08:37:30;99606.84;;;28.21;44.35
70982;BME280;58640;51.320;9.456;2022-08-25T08:39:55;99599.19;;;28.47;43.95
70982;BME280;58640;51.320;9.456;2022-08-25T08:53:58;99594.00;;;28.02;46.04
70982;BME280;58640;51.320;9.456;2022-08-25T08:56:29;99600.72;;;27.76;46.40
70982;BME280;58640;51.320;9.456;2022-08-25T08:59:05;99590.03;;;27.54;47.81
70982;BME280;58640;51.320;9.456;2022-08-25T09:01:41;99599.00;;;27.85;47.12
70982;BME280;58640;51.320;9.456;2022-08-25T09:04:25;99588.72;;;28.44;45.41
70982;BME280;58640;51.320;9.456;2022-08-25T09:06:51;99590.94;;;28.42;43.83
70982;BME280;58640;51.320;9.456;2022-08-25T09:09:28;99588.53;;;28.69;43.99
70982;BME280;58640;51.320;9.456;2022-08-25T09:15:06;99585.44;;;29.04;43.67
70982;BME280;58640;51.320;9.456;2022-08-25T09:23:11;99583.91;;;28.59;43.22
70982;BME280;58640;51.320;9.456;2022-08-25T09:26:06;99580.41;;;28.83;42.41
70982;BME280;58640;51.320;9.456;2022-08-25T09:28:50;99579.38;;;29.07;42.47
70982;BME280;58640;51.320;9.456;2022-08-25T09:31:25;99580.56;;;29.25;42.70
70982;BME280;58640;51.320;9.456;2022-08-25T09:33:55;99585.41;;;28.81;42.94
70982;BME280;58640;51.320;9.456;2022-08-25T09:36:22;99584.63;;;28.75;43.54
70982;BME280;58640;51.320;9.456;2022-08-25T09:38:48;99573.09;;;28.92;42.74
70982;BME280;58640;51.320;9.456;2022-08-25T09:41:17;99582.25;;;28.92;42.32
70982;BME280;58640;51.320;9.456;2022-08-25T09:43:53;99567.09;;;28.85;42.26
70982;BME280;58640;51.320;9.456;2022-08-25T09:46:24;99564.63;;;28.83;43.43
70982;BME280;58640;51.320;9.456;2022-08-25T09:49:10;99558.91;;;28.98;42.53
70982;BME280;58640;51.320;9.456;2022-08-25T09:51:37;99546.66;;;28.42;43.15
70982;BME280;58640;51.320;9.456;2022-08-25T09:56:55;99534.00;;;28.36;43.80
70982;BME280;58640;51.320;9.456;2022-08-25T09:59:24;99530.06;;;28.76;42.26
70982;BME280;58640;51.320;9.456;2022-08-25T10:01:52;99534.63;;;28.23;42.79
70982;BME280;58640;51.320;9.456;2022-08-25T10:04:34;99520.84;;;28.56;42.80
70982;BME280;58640;51.320;9.456;2022-08-25T10:07:34;99532.75;;;28.57;42.27
70982;BME280;58640;51.320;9.456;2022-08-25T10:10:04;99520.06;;;28.46;42.82
70982;BME280;58640;51.320;9.456;2022-08-25T10:12:36;99523.09;;;28.54;43.32
70982;BME280;58640;51.320;9.456;2022-08-25T10:17:41;99515.72;;;28.40;43.08
70982;BME280;58640;51.320;9.456;2022-08-25T10:22:36;99498.19;;;28.54;42.30
70982;BME280;58640;51.320;9.456;2022-08-25T10:25:07;99503.72;;;28.54;41.30
70982;BME280;58640;51.320;9.456;2022-08-25T10:30:16;99492.41;;;29.27;39.36
70982;BME280;58640;51.320;9.456;2022-08-25T10:38:38;99475.28;;;28.96;38.70
70982;BME280;58640;51.320;9.456;2022-08-25T10:47:27;99470.47;;;29.30;38.97
70982;BME280;58640;51.320;9.456;2022-08-25T10:50:20;99461.50;;;29.38;37.09
70982;BME280;58640;51.320;9.456;2022-08-25T10:55:25;99463.44;;;29.38;37.64
70982;BME280;58640;51.320;9.456;2022-08-25T11:00:48;99453.91;;;29.25;38.22
70982;BME280;58640;51.320;9.456;2022-08-25T11:06:24;99451.66;;;29.09;38.70
70982;BME280;58640;51.320;9.456;2022-08-25T11:08:59;99442.28;;;29.23;39.14
70982;BME280;58640;51.320;9.456;2022-08-25T11:11:31;99439.94;;;29.35;37.96
70982;BME280;58640;51.320;9.456;2022-08-25T11:14:20;99432.81;;;29.29;38.72
70982;BME280;58640;51.320;9.456;2022-08-25T11:16:52;99428.84;;;29.54;39.36
70982;BME280;58640;51.320;9.456;2022-08-25T11:19:34;99431.22;;;29.23;36.85
70982;BME280;58640;51.320;9.456;2022-08-25T11:27:15;99420.81;;;29.15;38.30
70982;BME280;58640;51.320;9.456;2022-08-25T11:29:48;99420.13;;;29.00;38.44
70982;BME280;58640;51.320;9.456;2022-08-25T11:32:19;99413.47;;;28.77;38.02
70982;BME280;58640;51.320;9.456;2022-08-25T11:34:45;99412.13;;;28.75;38.46
70982;BME280;58640;51.320;9.456;2022-08-25T11:37:22;99407.31;;;28.61;38.16
70982;BME280;58640;51.320;9.456;2022-08-25T11:48:12;99416.72;;;28.32;39.30
70982;BME280;58640;51.320;9.456;2022-08-25T11:51:02;99412.25;;;28.07;41.41
70982;BME280;58640;51.320;9.456;2022-08-25T11:53:44;99409.81;;;28.01;42.30
70982;BME280;58640;51.320;9.456;2022-08-25T11:56:32;99405.84;;;28.12;41.24
70982;BME280;58640;51.320;9.456;2022-08-25T11:58:58;99405.78;;;28.17;40.45
70982;BME280;58640;51.320;9.456;2022-08-25T12:09:33;99384.44;;;28.22;39.91
70982;BME280;58640;51.320;9.456;2022-08-25T12:23:40;99363.53;;;28.11;39.59
70982;BME280;58640;51.320;9.456;2022-08-25T12:37:15;99363.53;;;28.11;39.17
70982;BME280;58640;51.320;9.456;2022-08-25T12:40:01;99365.13;;;28.17;39.84
70982;BME280;58640;51.320;9.456;2022-08-25T12:42:36;99362.31;;;28.22;38.37
70982;BME280;58640;51.320;9.456;2022-08-25T12:47:47;99360.31;;;28.28;37.78
70982;BME280;58640;51.320;9.456;2022-08-25T12:53:39;99357.84;;;28.26;38.38
70982;BME280;58640;51.320;9.456;2022-08-25T12:56:06;99361.91;;;28.34;38.30
70982;BME280;58640;51.320;9.456;2022-08-25T12:58:46;99353.78;;;28.42;39.07
70982;BME280;58640;51.320;9.456;2022-08-25T13:07:29;99363.41;;;28.21;40.19
70982;BME280;58640;51.320;9.456;2022-08-25T13:15:31;99360.16;;;27.86;41.00
70982;BME280;58640;51.320;9.456;2022-08-25T13:18:21;99350.81;;;27.77;41.58
70982;BME280;58640;51.320;9.456;2022-08-25T13:20:51;99354.19;;;27.69;40.99
70982;BME280;58640;51.320;9.456;2022-08-25T13:23:26;99348.03;;;27.77;40.94
70982;BME280;58640;51.320;9.456;2022-08-25T13:25:52;99339.97;;;27.85;40.33
70982;BME280;58640;51.320;9.456;2022-08-25T13:28:28;99335.53;;;28.18;39.28
70982;BME280;58640;51.320;9.456;2022-08-25T13:31:04;99337.44;;;28.22;39.87
70982;BME280;58640;51.320;9.456;2022-08-25T13:33:29;99337.00;;;28.34;38.55
70982;BME280;58640;51.320;9.456;2022-08-25T13:35:57;99320.47;;;28.29;40.60
70982;BME280;58640;51.320;9.456;2022-08-25T13:38:43;99328.88;;;28.42;37.78
70982;BME280;58640;51.320;9.456;2022-08-25T13:41:09;99325.28;;;28.42;38.25
70982;BME280;58640;51.320;9.456;2022-08-25T13:43:36;99321.00;;;28.31;38.52
70982;BME280;58640;51.320;9.456;2022-08-25T13:46:03;99319.84;;;28.37;38.01
70982;BME280;58640;51.320;9.456;2022-08-25T13:48:37;99319.34;;;28.30;38.42
70982;BME280;58640;51.320;9.456;2022-08-25T13:51:17;99322.81;;;28.40;38.92
70982;BME280;58640;51.320;9.456;2022-08-25T13:54:23;99319.69;;;28.47;38.73
70982;BME280;58640;51.320;9.456;2022-08-25T13:56:40;99322.81;;;28.40;38.19
70982;BME280;58640;51.320;9.456;2022-08-25T13:59:19;99324.09;;;28.24;39.25
70982;BME280;58640;51.320;9.456;2022-08-25T14:01:47;99307.41;;;28.34;38.68
70982;BME280;58640;51.320;9.456;2022-08-25T14:07:08;99309.75;;;28.22;38.81
70982;BME280;58640;51.320;9.456;2022-08-25T14:10:04;99302.47;;;28.31;38.60
70982;BME280;58640;51.320;9.456;2022-08-25T14:17:35;99304.56;;;28.16;39.63
70982;BME280;58640;51.320;9.456;2022-08-25T14:20:03;99300.34;;;28.23;38.43
70982;BME280;58640;51.320;9.456;2022-08-25T14:22:29;99294.59;;;28.15;38.34
70982;BME280;58640;51.320;9.456;2022-08-25T14:24:54;99294.56;;;28.20;38.82
70982;BME280;58640;51.320;9.456;2022-08-25T14:27:20;99294.91;;;28.13;39.42
70982;BME280;58640;51.320;9.456;2022-08-25T14:29:46;99292.31;;;27.98;39.85
70982;BME280;58640;51.320;9.456;2022-08-25T14:32:12;99290.84;;;28.06;39.60
70982;BME280;58640;51.320;9.456;2022-08-25T14:34:39;99279.84;;;28.01;39.69
70982;BME280;58640;51.320;9.456;2022-08-25T14:37:10;99276.66;;;28.12;38.95
70982;BME280;58640;51.320;9.456;2022-08-25T14:39:36;99286.44;;;28.05;39.31
70982;BME280;58640;51.320;9.456;2022-08-25T14:42:02;99286.78;;;27.98;40.66
70982;BME280;58640;51.320;9.456;2022-08-25T14:44:27;99278.25;;;27.95;39.90
70982;BME280;58640;51.320;9.456;2022-08-25T14:46:54;99267.97;;;28.00;39.84
70982;BME280;58640;51.320;9.456;2022-08-25T14:49:23;99273.13;;;28.07;40.20
70982;BME280;58640;51.320;9.456;2022-08-25T14:51:51;99265.03;;;28.15;39.89
70982;BME280;58640;51.320;9.456;2022-08-25T14:54:16;99258.09;;;28.18;40.14
70982;BME280;58640;51.320;9.456;2022-08-25T14:56:43;99255.50;;;28.50;38.33
70982;BME280;58640;51.320;9.456;2022-08-25T14:59:09;99261.50;;;28.33;38.81
70982;BME280;58640;51.320;9.456;2022-08-25T15:01:34;99258.81;;;28.47;38.35
70982;BME280;58640;51.320;9.456;2022-08-25T15:04:04;99249.47;;;28.43;38.62
70982;BME280;58640;51.320;9.456;2022-08-25T15:06:30;99251.16;;;28.39;39.35
70982;BME280;58640;51.320;9.456;2022-08-25T15:08:57;99254.78;;;28.39;38.94
70982;BME280;58640;51.320;9.456;2022-08-25T15:11:50;99255.19;;;28.51;38.96
70982;BME280;58640;51.320;9.456;2022-08-25T15:14:18;99256.84;;;28.52;38.72